createdAt,value
2018-05-23T00:01:04.587Z,70.63
2018-05-23T00:03:32.139Z,70.77
2018-05-23T00:05:59.681Z,70.87
2018-05-23T00:08:27.273Z,71.32
2018-05-23T00:10:54.817Z,70.82
2018-05-23T00:13:22.389Z,71.11
2018-05-23T00:15:50.061Z,71.41
2018-05-23T00:18:17.609Z,71.76
2018-05-23T00:20:45.152Z,71.76
2018-05-23T00:23:12.865Z,71.71
2018-05-23T00:25:40.415Z,71.68
2018-05-23T00:28:07.952Z,71.79
2018-05-23T00:30:35.544Z,71.84
2018-05-23T00:33:03.096Z,72.09
2018-05-23T00:35:30.680Z,72.03
2018-05-23T00:37:58.305Z,72.15
2018-05-23T00:40:25.866Z,72.21
2018-05-23T00:42:53.415Z,72.33
2018-05-23T00:45:21.170Z,72.25
2018-05-23T00:47:48.724Z,72.21
2018-05-23T00:50:16.285Z,72.78
2018-05-23T00:52:43.904Z,72.82
2018-05-23T00:55:23.065Z,73.01
2018-05-23T00:57:50.796Z,73.16
2018-05-23T01:00:18.342Z,73.06
2018-05-23T01:02:45.910Z,72.83
2018-05-23T01:05:13.631Z,72.78
2018-05-23T01:07:41.181Z,72.86
2018-05-23T01:10:08.749Z,73.14
2018-05-23T01:12:37.364Z,74.03
2018-05-23T01:15:04.939Z,73.56
2018-05-23T01:17:32.473Z,73.55
2018-05-23T01:20:00.079Z,73.77
2018-05-23T01:22:27.667Z,73.76
2018-05-23T01:24:55.217Z,73.86
2018-05-23T01:27:22.946Z,73.79
2018-05-23T01:29:50.493Z,73.93
2018-05-23T01:32:18.049Z,73.98
2018-05-23T01:34:45.789Z,74.21
2018-05-23T01:37:13.324Z,74.59
2018-05-23T01:39:40.856Z,74.87
2018-05-23T01:42:08.459Z,74.90
2018-05-23T01:44:36.015Z,75.09
2018-05-23T01:47:03.577Z,75.28
2018-05-23T01:49:31.161Z,75.67
2018-05-23T01:51:58.712Z,75.78
2018-05-23T01:54:26.263Z,75.81
2018-05-23T01:56:53.867Z,75.75
2018-05-23T01:59:21.420Z,75.79
2018-05-23T02:01:48.991Z,76.00
2018-05-23T02:04:16.755Z,76.30
2018-05-23T02:06:44.328Z,76.39
2018-05-23T02:09:11.875Z,76.40
2018-05-23T02:11:39.461Z,76.42
2018-05-23T02:14:07.012Z,76.61
2018-05-23T02:16:34.564Z,76.80
2018-05-23T02:19:02.329Z,76.98
2018-05-23T02:21:29.868Z,77.09
2018-05-23T02:23:57.418Z,77.30
2018-05-23T02:26:25.015Z,77.48
2018-05-23T02:28:52.571Z,77.49
2018-05-23T02:31:20.142Z,77.38
2018-05-23T02:33:47.836Z,77.37
2018-05-23T02:36:15.395Z,77.37
2018-05-23T02:38:42.970Z,77.39
2018-05-23T02:41:10.569Z,77.39
2018-05-23T02:43:38.165Z,77.53
2018-05-23T02:46:05.757Z,77.57
2018-05-23T02:48:33.673Z,77.55
2018-05-23T02:51:01.254Z,77.58
2018-05-23T02:53:28.808Z,77.66
2018-05-23T02:55:56.431Z,77.77
2018-05-23T02:58:23.977Z,77.86
2018-05-23T03:00:51.531Z,77.91
2018-05-23T03:03:19.109Z,77.95
2018-05-23T03:05:46.656Z,77.82
2018-05-23T03:08:14.203Z,77.77
2018-05-23T03:10:42.545Z,77.32
2018-05-23T03:13:10.112Z,76.77
2018-05-23T03:15:37.664Z,76.06
2018-05-23T03:18:05.267Z,75.37
2018-05-23T03:20:32.814Z,73.97
2018-05-23T03:23:00.354Z,72.19
2018-05-23T03:25:28.259Z,69.80
2018-05-23T03:27:55.839Z,67.64
2018-05-23T03:30:23.408Z,64.48
2018-05-23T03:32:50.999Z,62.42
2018-05-23T03:35:18.559Z,59.47
2018-05-23T03:37:46.125Z,56.24
2018-05-23T03:40:13.709Z,54.45
2018-05-23T03:42:41.256Z,51.93
2018-05-23T03:45:08.817Z,49.53
2018-05-23T03:47:36.517Z,47.07
2018-05-23T03:50:04.970Z,45.27
2018-05-23T03:52:33.300Z,43.83
2018-05-23T03:55:01.035Z,41.61
2018-05-23T03:57:28.576Z,40.54
2018-05-23T04:00:07.801Z,40.18
2018-05-23T04:02:46.968Z,38.63
2018-05-23T04:08:22.460Z,34.52
2018-05-23T04:10:50.041Z,33.65
2018-05-23T04:13:17.594Z,32.58
2018-05-23T04:15:45.153Z,31.54
2018-05-23T04:18:12.752Z,30.57
2018-05-23T04:20:40.299Z,29.64
2018-05-23T04:23:07.851Z,29.12
2018-05-23T04:25:35.553Z,28.36
2018-05-23T04:28:03.096Z,27.00
2018-05-23T04:30:30.748Z,26.51
2018-05-23T04:32:58.319Z,26.90
2018-05-23T04:35:25.869Z,26.32
2018-05-23T04:37:53.437Z,26.20
2018-05-23T04:40:21.037Z,24.00
2018-05-23T04:42:48.597Z,25.00
2018-05-23T04:45:16.165Z,24.06
2018-05-23T04:47:43.752Z,24.35
2018-05-23T04:50:11.402Z,23.98
2018-05-23T04:52:38.951Z,24.32
2018-05-23T04:55:06.689Z,23.80
2018-05-23T04:57:34.251Z,22.99
2018-05-23T05:00:01.809Z,22.85
2018-05-23T05:02:29.400Z,23.39
2018-05-23T05:04:56.997Z,22.71
2018-05-23T05:07:24.561Z,22.42
2018-05-23T05:09:52.141Z,23.19
2018-05-23T05:12:19.750Z,22.39
2018-05-23T05:14:47.292Z,23.37
2018-05-23T05:17:14.877Z,24.62
2018-05-23T05:19:42.432Z,25.86
2018-05-23T05:22:09.978Z,27.46
2018-05-23T05:24:37.654Z,28.87
2018-05-23T05:27:05.212Z,30.18
2018-05-23T05:29:32.753Z,31.24
2018-05-23T05:32:00.494Z,31.67
2018-05-23T05:34:29.040Z,31.80
2018-05-23T05:36:56.613Z,33.55
2018-05-23T05:39:24.418Z,34.53
2018-05-23T05:41:51.968Z,35.34
2018-05-23T05:44:19.523Z,34.13
2018-05-23T05:46:47.131Z,33.93
2018-05-23T05:49:14.696Z,34.49
2018-05-23T05:51:42.269Z,34.62
2018-05-23T05:54:10.152Z,34.25
2018-05-23T05:56:37.695Z,33.11
2018-05-23T05:59:05.258Z,35.42
2018-05-23T06:01:33.168Z,34.94
2018-05-23T06:04:00.719Z,35.44
2018-05-23T06:06:28.266Z,36.35
2018-05-23T06:08:55.841Z,36.04
2018-05-23T06:11:23.425Z,35.97
2018-05-23T06:13:50.971Z,37.06
2018-05-23T06:16:18.554Z,37.70
2018-05-23T06:18:46.114Z,37.19
2018-05-23T06:21:13.675Z,37.40
2018-05-23T06:23:41.261Z,37.84
2018-05-23T06:26:08.840Z,37.28
2018-05-23T06:28:36.398Z,38.27
2018-05-23T06:31:04.061Z,38.74
2018-05-23T06:33:31.629Z,39.71
2018-05-23T06:35:59.193Z,40.16
2018-05-23T06:38:26.789Z,40.99
2018-05-23T06:40:54.361Z,41.65
2018-05-23T06:43:21.926Z,42.61
2018-05-23T06:45:49.520Z,42.14
2018-05-23T06:48:17.080Z,42.90
2018-05-23T06:50:44.641Z,43.04
2018-05-23T06:53:12.386Z,42.41
2018-05-23T06:55:39.924Z,42.23
2018-05-23T06:58:07.482Z,41.73
2018-05-23T07:00:35.064Z,41.64
2018-05-23T07:03:02.620Z,42.20
2018-05-23T07:05:30.187Z,43.28
2018-05-23T07:07:57.773Z,42.98
2018-05-23T07:10:25.333Z,42.00
2018-05-23T07:12:52.879Z,42.39
2018-05-23T07:15:20.457Z,42.83
2018-05-23T07:17:48.044Z,42.79
2018-05-23T07:20:15.610Z,43.26
2018-05-23T07:22:43.350Z,43.32
2018-05-23T07:25:10.923Z,43.71
2018-05-23T07:27:38.475Z,44.52
2018-05-23T07:30:06.335Z,46.06
2018-05-23T07:32:33.881Z,44.61
2018-05-23T07:35:01.430Z,44.86
2018-05-23T07:37:29.028Z,44.10
2018-05-23T07:39:56.592Z,44.08
2018-05-23T07:42:24.133Z,45.23
2018-05-23T07:44:51.723Z,44.94
2018-05-23T07:47:19.276Z,44.99
2018-05-23T07:49:46.827Z,45.81
2018-05-23T07:52:14.411Z,46.68
2018-05-23T07:54:41.961Z,47.30
2018-05-23T07:57:09.552Z,46.85
2018-05-23T07:59:37.117Z,46.77
2018-05-23T08:02:04.679Z,46.74
2018-05-23T08:04:32.268Z,45.54
2018-05-23T08:07:00.208Z,45.33
2018-05-23T08:09:27.762Z,47.41
2018-05-23T08:11:55.363Z,45.92
2018-05-23T08:14:22.938Z,45.95
2018-05-23T08:16:50.504Z,45.68
2018-05-23T08:19:18.086Z,46.17
2018-05-23T08:21:45.639Z,45.85
2018-05-23T08:24:13.188Z,46.48
2018-05-23T08:26:40.792Z,46.23
2018-05-23T08:29:08.346Z,47.36
2018-05-23T08:31:35.998Z,47.41
2018-05-23T08:34:03.927Z,46.91
2018-05-23T08:36:31.555Z,46.75
2018-05-23T08:38:59.093Z,46.17
2018-05-23T08:41:26.771Z,46.03
2018-05-23T08:43:54.333Z,45.93
2018-05-23T08:46:21.892Z,45.76
2018-05-23T08:48:49.573Z,45.90
2018-05-23T08:51:17.124Z,45.70
2018-05-23T08:53:44.672Z,44.33
2018-05-23T08:56:12.352Z,43.67
2018-05-23T08:58:39.900Z,44.13
2018-05-23T09:01:07.461Z,43.96
2018-05-23T09:03:35.149Z,45.15
2018-05-23T09:06:02.696Z,44.88
2018-05-23T09:08:30.248Z,44.15
2018-05-23T09:10:57.997Z,43.79
2018-05-23T09:13:25.566Z,44.21
2018-05-23T09:15:53.113Z,43.14
2018-05-23T09:18:20.806Z,42.81
2018-05-23T09:20:48.350Z,43.02
2018-05-23T09:23:15.904Z,43.61
2018-05-23T09:25:43.653Z,44.44
2018-05-23T09:28:11.207Z,43.32
2018-05-23T09:30:38.757Z,43.84
2018-05-23T09:33:06.487Z,42.59
2018-05-23T09:35:34.050Z,42.91
2018-05-23T09:38:01.592Z,43.75
2018-05-23T09:40:29.172Z,41.94
2018-05-23T09:42:56.729Z,43.93
2018-05-23T09:45:24.280Z,42.29
2018-05-23T09:47:51.870Z,44.08
2018-05-23T09:50:19.432Z,43.68
2018-05-23T09:52:46.979Z,42.77
2018-05-23T09:55:14.683Z,42.88
2018-05-23T09:57:42.243Z,40.46
2018-05-23T10:00:09.835Z,41.67
2018-05-23T10:02:37.419Z,41.96
2018-05-23T10:05:04.972Z,41.12
2018-05-23T10:07:32.530Z,40.96
2018-05-23T10:10:00.146Z,40.41
2018-05-23T10:12:27.686Z,40.35
2018-05-23T10:14:55.964Z,40.81
2018-05-23T10:17:23.884Z,40.40
2018-05-23T10:19:51.436Z,39.57
2018-05-23T10:22:19.001Z,40.45
2018-05-23T10:24:46.587Z,40.43
2018-05-23T10:27:14.146Z,40.39
2018-05-23T10:29:41.697Z,41.27
2018-05-23T10:32:09.278Z,40.77
2018-05-23T10:34:36.837Z,39.78
2018-05-23T10:37:04.394Z,41.09
2018-05-23T10:39:32.084Z,41.14
2018-05-23T10:41:59.670Z,41.63
2018-05-23T10:44:27.245Z,41.03
2018-05-23T10:46:54.996Z,42.37
2018-05-23T10:49:22.549Z,42.96
2018-05-23T10:51:50.098Z,42.83
2018-05-23T10:54:17.663Z,43.25
2018-05-23T10:56:45.215Z,43.29
2018-05-23T10:59:12.764Z,42.59
2018-05-23T11:01:40.366Z,41.83
2018-05-23T11:04:07.920Z,41.44
2018-05-23T11:06:35.522Z,41.64
2018-05-23T11:09:03.238Z,41.26
2018-05-23T11:11:30.754Z,42.07
2018-05-23T11:13:58.320Z,41.77
2018-05-23T11:16:26.087Z,41.39
2018-05-23T11:18:53.640Z,42.25
2018-05-23T11:21:21.235Z,42.83
2018-05-23T11:23:48.811Z,40.88
2018-05-23T11:26:16.357Z,43.76
2018-05-23T11:28:43.908Z,44.04
2018-05-23T11:31:11.507Z,44.50
2018-05-23T11:33:39.054Z,44.09
2018-05-23T11:36:06.614Z,43.93
2018-05-23T11:38:34.296Z,43.84
2018-05-23T11:41:01.858Z,43.75
2018-05-23T11:43:29.399Z,43.92
2018-05-23T11:45:57.088Z,45.03
2018-05-23T11:48:24.652Z,45.05
2018-05-23T11:50:52.209Z,44.80
2018-05-23T11:53:19.794Z,45.96
2018-05-23T11:55:47.339Z,44.38
2018-05-23T11:58:14.888Z,45.31
2018-05-23T12:00:42.497Z,44.40
2018-05-23T12:03:10.066Z,45.69
2018-05-23T12:05:37.612Z,45.14
2018-05-23T12:08:05.205Z,45.27
2018-05-23T12:10:32.802Z,45.78
2018-05-23T12:13:00.355Z,45.15
2018-05-23T12:15:28.061Z,44.67
2018-05-23T12:17:55.622Z,45.86
2018-05-23T12:20:23.196Z,46.26
2018-05-23T12:22:50.795Z,46.44
2018-05-23T12:25:18.373Z,47.10
2018-05-23T12:27:45.930Z,46.55
2018-05-23T12:30:13.519Z,46.58
2018-05-23T12:32:41.073Z,46.42
2018-05-23T12:35:08.616Z,46.67
2018-05-23T12:37:36.208Z,47.03
2018-05-23T12:40:03.791Z,48.20
2018-05-23T12:42:31.332Z,47.99
2018-05-23T12:44:59.059Z,47.90
2018-05-23T12:47:26.609Z,48.11
2018-05-23T12:49:54.171Z,48.28
2018-05-23T12:52:21.769Z,48.54
2018-05-23T12:54:49.325Z,48.39
2018-05-23T12:57:16.875Z,48.89
2018-05-23T12:59:44.458Z,49.10
2018-05-23T13:02:12.008Z,49.60
2018-05-23T13:04:39.741Z,49.52
2018-05-23T13:07:07.279Z,49.51
2018-05-23T13:09:34.834Z,49.02
2018-05-23T13:12:02.531Z,48.48
2018-05-23T13:14:30.077Z,48.41
2018-05-23T13:16:57.621Z,48.89
2018-05-23T13:19:25.319Z,48.69
2018-05-23T13:21:52.882Z,49.74
2018-05-23T13:24:20.434Z,49.02
2018-05-23T13:26:48.122Z,49.06
2018-05-23T13:29:15.668Z,48.97
2018-05-23T13:31:43.219Z,48.42
2018-05-23T13:34:10.902Z,48.72
2018-05-23T13:36:38.449Z,48.48
2018-05-23T13:39:06.027Z,48.98
2018-05-23T13:41:33.622Z,49.65
2018-05-23T13:44:01.171Z,49.84
2018-05-23T13:46:28.776Z,50.11
2018-05-23T13:48:56.383Z,50.19
2018-05-23T13:51:23.920Z,50.80
2018-05-23T13:53:51.473Z,50.22
2018-05-23T13:56:19.326Z,50.54
2018-05-23T13:58:46.878Z,50.79
2018-05-23T14:01:14.425Z,51.60
2018-05-23T14:03:42.014Z,51.65
2018-05-23T14:06:09.563Z,52.38
2018-05-23T14:08:37.121Z,52.19
2018-05-23T14:11:04.860Z,52.07
2018-05-23T14:13:32.404Z,52.17
2018-05-23T14:15:59.967Z,52.42
2018-05-23T14:18:27.557Z,52.92
2018-05-23T14:20:55.212Z,53.53
2018-05-23T14:23:22.725Z,53.93
2018-05-23T14:25:50.487Z,54.81
2018-05-23T14:28:18.048Z,54.66
2018-05-23T14:30:45.608Z,55.25
2018-05-23T14:33:13.346Z,55.47
2018-05-23T14:35:40.896Z,55.26
2018-05-23T14:38:08.476Z,55.18
2018-05-23T14:40:36.088Z,54.74
2018-05-23T14:43:03.635Z,54.42
2018-05-23T14:45:31.185Z,53.63
2018-05-23T14:47:59.120Z,54.17
2018-05-23T14:50:26.678Z,54.72
2018-05-23T14:52:54.234Z,54.23
2018-05-23T14:55:21.988Z,54.14
2018-05-23T14:57:49.543Z,54.69
2018-05-23T15:00:17.092Z,54.08
2018-05-23T15:02:44.680Z,53.93
2018-05-23T15:05:12.241Z,54.46
2018-05-23T15:07:39.792Z,55.01
2018-05-23T15:10:07.531Z,54.29
2018-05-23T15:12:35.077Z,53.85
2018-05-23T15:15:02.625Z,52.12
2018-05-23T15:17:30.322Z,50.38
2018-05-23T15:19:57.982Z,48.71
2018-05-23T15:22:25.466Z,44.42
2018-05-23T15:24:53.199Z,42.29
2018-05-23T15:27:20.863Z,42.81
2018-05-23T15:29:48.358Z,42.73
2018-05-23T15:32:15.950Z,44.75
2018-05-23T15:34:43.492Z,44.71
2018-05-23T15:37:11.064Z,42.84
2018-05-23T15:39:38.643Z,43.50
2018-05-23T15:42:06.216Z,42.94
2018-05-23T15:44:33.764Z,41.53
2018-05-23T15:47:01.452Z,42.24
2018-05-23T15:49:29.029Z,42.49
2018-05-23T15:51:56.586Z,42.20
2018-05-23T15:54:24.497Z,42.66
2018-05-23T15:56:53.287Z,41.80
2018-05-23T15:59:20.841Z,41.24
2018-05-23T16:01:48.469Z,41.62
2018-05-23T16:04:16.058Z,42.46
2018-05-23T16:06:43.609Z,44.46
2018-05-23T16:09:11.297Z,44.44
2018-05-23T16:11:38.852Z,45.73
2018-05-23T16:14:06.412Z,46.74
2018-05-23T16:16:33.989Z,47.16
2018-05-23T16:19:01.564Z,47.66
2018-05-23T16:21:29.123Z,47.85
2018-05-23T16:23:57.035Z,48.04
2018-05-23T16:26:24.604Z,48.09
2018-05-23T16:28:52.640Z,48.25
2018-05-23T16:31:20.386Z,48.46
2018-05-23T16:33:47.956Z,48.54
2018-05-23T16:36:15.492Z,48.44
2018-05-23T16:38:43.183Z,48.28
2018-05-23T16:41:10.773Z,48.04
2018-05-23T16:43:38.315Z,48.24
2018-05-23T16:46:06.078Z,48.52
2018-05-23T16:48:33.631Z,48.81
2018-05-23T16:51:01.178Z,48.20
2018-05-23T16:53:28.761Z,48.12
2018-05-23T16:55:56.338Z,48.05
2018-05-23T16:58:23.911Z,47.71
2018-05-23T17:00:51.501Z,47.59
2018-05-23T17:03:19.049Z,47.43
2018-05-23T17:05:46.962Z,47.12
2018-05-23T17:08:14.544Z,46.62
2018-05-23T17:10:42.105Z,46.74
2018-05-23T17:13:10.000Z,46.72
2018-05-23T17:15:37.575Z,46.78
2018-05-23T17:18:05.152Z,47.41
2018-05-23T17:20:32.765Z,47.87
2018-05-23T17:23:00.338Z,48.54
2018-05-23T17:25:27.887Z,48.66
2018-05-23T17:27:55.612Z,49.29
2018-05-23T17:30:23.173Z,49.69
2018-05-23T17:32:50.718Z,50.23
2018-05-23T17:35:18.332Z,50.88
2018-05-23T17:37:45.902Z,51.53
2018-05-23T17:40:13.529Z,52.07
2018-05-23T17:42:41.196Z,52.49
2018-05-23T17:45:08.793Z,52.68
2018-05-23T17:47:36.357Z,53.30
2018-05-23T17:50:04.083Z,53.70
2018-05-23T17:52:31.648Z,53.82
2018-05-23T17:54:59.260Z,54.07
2018-05-23T17:57:26.945Z,54.32
2018-05-23T17:59:54.496Z,54.69
2018-05-23T18:02:22.058Z,54.96
2018-05-23T18:04:49.669Z,55.51
2018-05-23T18:07:17.279Z,55.70
2018-05-23T18:09:44.838Z,55.91
2018-05-23T18:12:12.444Z,56.44
2018-05-23T18:14:40.021Z,56.90
2018-05-23T18:17:07.585Z,57.05
2018-05-23T18:19:35.178Z,57.05
2018-05-23T18:22:02.723Z,57.56
2018-05-23T18:24:30.271Z,57.56
2018-05-23T18:26:58.047Z,57.88
2018-05-23T18:29:25.692Z,57.57
2018-05-23T18:31:53.214Z,57.34
2018-05-23T18:34:20.798Z,57.37
2018-05-23T18:36:48.353Z,57.37
2018-05-23T18:39:15.923Z,57.19
2018-05-23T18:41:43.533Z,57.09
2018-05-23T18:44:11.097Z,57.23
2018-05-23T18:46:38.667Z,57.20
2018-05-23T18:49:06.243Z,56.86
2018-05-23T18:51:33.805Z,56.29
2018-05-23T18:54:01.370Z,56.51
2018-05-23T18:56:29.092Z,56.27
2018-05-23T18:58:56.645Z,56.67
2018-05-23T19:01:24.209Z,56.59
2018-05-23T19:03:51.975Z,57.11
2018-05-23T19:06:19.527Z,57.36
2018-05-23T19:08:47.064Z,57.79
2018-05-23T19:11:14.641Z,57.92
2018-05-23T19:13:42.208Z,58.58
2018-05-23T19:16:09.761Z,58.83
2018-05-23T19:18:37.367Z,58.77
2018-05-23T19:21:04.967Z,58.77
2018-05-23T19:23:32.541Z,58.43
2018-05-23T19:26:00.159Z,58.12
2018-05-23T19:28:27.708Z,57.77
2018-05-23T19:30:55.266Z,57.66
2018-05-23T19:33:22.913Z,57.52
2018-05-23T19:35:50.476Z,57.99
2018-05-23T19:38:18.014Z,58.32
2018-05-23T19:40:45.589Z,59.18
2018-05-23T19:43:13.161Z,61.15
2018-05-23T19:45:40.715Z,61.74
2018-05-23T19:48:08.348Z,62.36
2018-05-23T19:50:35.896Z,62.66
2018-05-23T19:53:03.456Z,62.28
2018-05-23T19:55:31.044Z,62.93
2018-05-23T19:57:58.631Z,62.84
2018-05-23T20:00:26.229Z,62.68
2018-05-23T20:02:54.306Z,62.97
2018-05-23T20:05:21.867Z,62.67
2018-05-23T20:07:49.410Z,62.69
2018-05-23T20:10:17.037Z,63.24
2018-05-23T20:12:44.602Z,63.49
2018-05-23T20:15:12.144Z,63.66
2018-05-23T20:17:39.896Z,64.25
2018-05-23T20:20:07.469Z,64.69
2018-05-23T20:22:35.023Z,64.67
2018-05-23T20:25:02.848Z,64.79
2018-05-23T20:27:30.412Z,64.59
2018-05-23T20:29:57.974Z,64.74
2018-05-23T20:32:25.747Z,64.72
2018-05-23T20:34:53.361Z,64.52
2018-05-23T20:37:20.945Z,64.59
2018-05-23T20:39:48.525Z,64.54
2018-05-23T20:42:16.084Z,64.76
2018-05-23T20:44:43.652Z,64.11
2018-05-23T20:47:11.239Z,63.30
2018-05-23T20:49:38.845Z,63.16
2018-05-23T20:52:06.429Z,62.56
2018-05-23T20:54:34.178Z,63.05
2018-05-23T20:57:01.740Z,63.59
2018-05-23T20:59:29.285Z,63.70
2018-05-23T21:01:56.868Z,63.59
2018-05-23T21:04:26.343Z,63.50
2018-05-23T21:06:53.901Z,63.87
2018-05-23T21:09:21.607Z,64.31
2018-05-23T21:11:49.168Z,63.62
2018-05-23T21:14:16.725Z,64.12
2018-05-23T21:16:44.461Z,64.83
2018-05-23T21:19:12.021Z,64.42
2018-05-23T21:21:39.586Z,64.86
2018-05-23T21:24:07.181Z,64.87
2018-05-23T21:26:34.747Z,65.39
2018-05-23T21:29:02.292Z,64.84
2018-05-23T21:31:29.893Z,64.63
2018-05-23T21:33:57.447Z,64.85
2018-05-23T21:36:25.000Z,65.10
2018-05-23T21:38:52.744Z,64.55
2018-05-23T21:41:20.292Z,64.00
2018-05-23T21:43:47.857Z,64.10
2018-05-23T21:46:15.456Z,64.05
2018-05-23T21:48:43.076Z,63.72
2018-05-23T21:51:11.140Z,63.67
2018-05-23T21:53:39.063Z,63.77
2018-05-23T21:56:06.617Z,63.84
2018-05-23T21:58:34.164Z,64.06
2018-05-23T22:01:01.723Z,64.37
2018-05-23T22:03:29.275Z,64.30
2018-05-23T22:05:56.966Z,64.30
2018-05-23T22:08:24.556Z,64.36
2018-05-23T22:10:52.121Z,64.70
2018-05-23T22:13:19.693Z,65.17
2018-05-23T22:15:47.241Z,65.37
2018-05-23T22:18:14.814Z,65.10
2018-05-23T22:20:42.418Z,64.86
2018-05-23T22:23:09.977Z,65.56
2018-05-23T22:25:37.523Z,66.00
2018-05-23T22:28:05.261Z,65.76
2018-05-23T22:30:32.883Z,64.98
2018-05-23T22:33:00.388Z,63.58
2018-05-23T22:35:27.964Z,63.63
2018-05-23T22:37:55.510Z,64.10
2018-05-23T22:40:23.088Z,63.00
2018-05-23T22:42:50.693Z,62.95
2018-05-23T22:45:18.253Z,62.35
2018-05-23T22:47:45.801Z,63.22
2018-05-23T22:50:13.378Z,63.25
2018-05-23T22:52:40.932Z,63.74
2018-05-23T22:55:08.509Z,62.91
2018-05-23T22:57:36.089Z,62.29
2018-05-23T23:00:03.651Z,63.43
2018-05-23T23:02:31.204Z,63.73
2018-05-23T23:04:58.792Z,63.90
2018-05-23T23:07:26.360Z,64.33
2018-05-23T23:09:53.913Z,64.50
2018-05-23T23:12:21.477Z,64.32
2018-05-23T23:14:49.016Z,64.32
2018-05-23T23:17:16.568Z,64.00
2018-05-23T23:19:44.326Z,64.03
2018-05-23T23:22:23.615Z,64.19
2018-05-23T23:24:51.328Z,64.32
2018-05-23T23:27:18.877Z,64.11
2018-05-23T23:29:46.483Z,64.05
2018-05-23T23:32:14.093Z,63.83
2018-05-23T23:34:41.637Z,63.67
2018-05-23T23:37:09.187Z,63.15
2018-05-23T23:39:36.772Z,63.55
2018-05-23T23:42:04.318Z,64.13
2018-05-23T23:44:31.873Z,63.92
2018-05-23T23:46:59.779Z,65.05
2018-05-23T23:49:27.342Z,65.30
2018-05-23T23:51:54.875Z,65.39
2018-05-23T23:54:22.596Z,65.48
2018-05-23T23:56:50.135Z,66.07
2018-05-23T23:59:17.679Z,66.33
